Time;durP1;ratioP1;P1;durP2;ratioP2;P2;SDS_P1;SDS_P2;PMS_P1;PMS_P2;Temp;Humidity;BMP_temperature;BMP_pressure;BME280_temperature;BME280_humidity;BME280_pressure;Samples;Min_cycle;Max_cycle;Signal;HPM_P1;HPM_P2
2023/11/08 00:02:21;;;;;;;8.40;1.70;;;;;;;;;;5012350;28;20530;-86
2023/11/08 00:04:46;;;;;;;8.15;1.60;;;;;;;;;;5011259;28;20050;-86
2023/11/08 00:07:11;;;;;;;4.37;1.40;;;;;;;;;;5010451;28;20021;-86
2023/11/08 00:09:36;;;;;;;9.77;1.75;;;;;;;;;;5012279;28;20306;-86
2023/11/08 00:12:03;;;;;;;13.13;1.80;;;;;;;;;;5010311;28;20555;-87
2023/11/08 00:14:28;;;;;;;14.40;2.03;;;;;;;;;;5010844;28;20290;-87
2023/11/08 00:16:54;;;;;;;6.55;2.00;;;;;;;;;;5010541;28;20407;-86
2023/11/08 00:19:19;;;;;;;8.23;2.08;;;;;;;;;;5012338;28;20104;-86
2023/11/08 00:21:45;;;;;;;6.03;1.57;;;;;;;;;;5011139;28;20125;-86
2023/11/08 00:24:10;;;;;;;7.70;1.85;;;;;;;;;;5011976;28;20280;-86
2023/11/08 00:26:35;;;;;;;7.25;1.30;;;;;;;;;;5009386;28;20057;-87
2023/11/08 00:29:00;;;;;;;7.23;1.57;;;;;;;;;;5011437;28;20022;-86
2023/11/08 00:31:25;;;;;;;4.80;1.27;;;;;;;;;;5010069;28;20268;-86
2023/11/08 00:33:52;;;;;;;8.67;1.93;;;;;;;;;;5010026;28;20824;-86
2023/11/08 00:36:17;;;;;;;11.02;1.92;;;;;;;;;;5010025;28;20343;-87
2023/11/08 00:38:43;;;;;;;5.60;1.80;;;;;;;;;;5009748;28;20114;-87
2023/11/08 00:41:08;;;;;;;7.10;1.60;;;;;;;;;;5011166;28;20083;-86
2023/11/08 00:43:33;;;;;;;9.87;2.13;;;;;;;;;;5011867;28;20290;-87
2023/11/08 00:46:02;;;;;;;6.75;1.40;;;;;;;;;;5011050;28;20267;-86
2023/11/08 00:48:28;;;;;;;7.85;1.58;;;;;;;;;;5011898;28;20476;-86
2023/11/08 00:50:54;;;;;;;5.63;1.55;;;;;;;;;;5010280;28;20034;-86
2023/11/08 00:53:20;;;;;;;7.72;1.50;;;;;;;;;;5010487;28;20571;-86
2023/11/08 00:55:45;;;;;;;9.40;1.98;;;;;;;;;;5009819;28;20044;-86
2023/11/08 00:58:10;;;;;;;9.38;1.75;;;;;;;;;;5011805;28;20464;-86
2023/11/08 01:00:35;;;;;;;12.90;2.70;;;;;;;;;;5011301;28;20435;-86
2023/11/08 01:03:01;;;;;;;4.67;1.20;;;;;;;;;;5011736;28;20638;-87
2023/11/08 01:05:26;;;;;;;5.47;1.55;;;;;;;;;;5015451;28;20609;-86
2023/11/08 01:07:52;;;;;;;11.57;1.50;;;;;;;;;;5013972;28;20109;-87
2023/11/08 01:10:17;;;;;;;6.45;1.73;;;;;;;;;;5013634;28;20536;-86
2023/11/08 01:12:42;;;;;;;8.82;1.90;;;;;;;;;;5013393;28;20081;-87
2023/11/08 01:15:08;;;;;;;10.95;2.08;;;;;;;;;;5015503;28;20476;-86
2023/11/08 01:17:34;;;;;;;8.88;1.95;;;;;;;;;;5013712;28;20083;-87
2023/11/08 01:20:00;;;;;;;8.85;1.60;;;;;;;;;;5015360;28;20108;-87
2023/11/08 01:22:26;;;;;;;6.70;1.52;;;;;;;;;;5013371;28;20141;-87
2023/11/08 01:24:51;;;;;;;11.90;1.40;;;;;;;;;;5014556;28;20528;-86
2023/11/08 01:27:16;;;;;;;6.88;1.13;;;;;;;;;;5014929;28;20071;-86
2023/11/08 01:29:42;;;;;;;4.30;1.00;;;;;;;;;;5013530;28;20040;-87
2023/11/08 01:32:07;;;;;;;9.85;2.03;;;;;;;;;;5013013;28;20275;-87
2023/11/08 01:34:32;;;;;;;9.95;1.40;;;;;;;;;;5012347;28;20022;-86
2023/11/08 01:36:58;;;;;;;9.82;1.10;;;;;;;;;;5015081;28;20026;-87
2023/11/08 01:39:23;;;;;;;4.85;1.10;;;;;;;;;;5013105;28;20014;-86
2023/11/08 01:41:49;;;;;;;13.90;2.07;;;;;;;;;;5013207;28;20042;-86
2023/11/08 01:44:22;;;;;;;12.80;1.50;;;;;;;;;;5013408;28;20267;-86
2023/11/08 01:46:54;;;;;;;10.00;1.33;;;;;;;;;;5013185;28;20014;-86
2023/11/08 01:49:20;;;;;;;7.45;1.88;;;;;;;;;;5014777;28;20120;-86
2023/11/08 01:51:45;;;;;;;5.78;1.10;;;;;;;;;;5012971;28;20026;-86
2023/11/08 01:54:10;;;;;;;10.43;1.38;;;;;;;;;;5013357;28;20474;-86
2023/11/08 01:56:36;;;;;;;15.07;1.92;;;;;;;;;;5013532;28;20021;-86
2023/11/08 01:59:02;;;;;;;11.48;1.20;;;;;;;;;;5013396;28;20030;-86
2023/11/08 02:01:28;;;;;;;8.50;1.30;;;;;;;;;;5012753;28;20021;-86
2023/11/08 02:03:54;;;;;;;8.63;1.52;;;;;;;;;;5012661;28;20036;-87
2023/11/08 02:06:19;;;;;;;8.60;1.27;;;;;;;;;;5017766;28;20014;-86
2023/11/08 02:08:45;;;;;;;9.63;1.65;;;;;;;;;;5014450;28;20084;-87
2023/11/08 02:11:12;;;;;;;12.57;2.85;;;;;;;;;;5013753;28;20439;-86
2023/11/08 02:13:38;;;;;;;8.93;1.67;;;;;;;;;;5012951;28;20117;-86
2023/11/08 02:16:03;;;;;;;9.43;1.33;;;;;;;;;;5014212;28;20053;-86
2023/11/08 02:18:31;;;;;;;10.00;1.85;;;;;;;;;;5013467;28;20030;-86
2023/11/08 02:21:00;;;;;;;12.52;1.58;;;;;;;;;;5012708;28;20057;-87
2023/11/08 02:23:25;;;;;;;10.10;1.40;;;;;;;;;;5013101;28;20028;-86
2023/11/08 02:25:51;;;;;;;8.70;1.55;;;;;;;;;;5013164;28;20097;-86
2023/11/08 02:28:17;;;;;;;7.45;1.45;;;;;;;;;;5010455;28;20060;-87
2023/11/08 02:30:42;;;;;;;8.68;1.20;;;;;;;;;;5013980;28;20046;-86
2023/11/08 02:33:08;;;;;;;7.73;1.50;;;;;;;;;;5012144;28;20400;-87
2023/11/08 02:35:34;;;;;;;9.35;2.25;;;;;;;;;;5008872;28;20279;-87
2023/11/08 02:37:59;;;;;;;7.57;1.33;;;;;;;;;;5011308;28;20030;-87
2023/11/08 02:40:24;;;;;;;10.82;1.10;;;;;;;;;;5012480;28;20388;-87
2023/11/08 02:42:49;;;;;;;7.10;1.20;;;;;;;;;;5011070;28;20061;-87
2023/11/08 02:45:15;;;;;;;10.25;1.45;;;;;;;;;;5013745;28;20390;-86
2023/11/08 02:47:40;;;;;;;12.65;1.48;;;;;;;;;;5012008;28;20049;-86
2023/11/08 02:50:06;;;;;;;10.13;1.58;;;;;;;;;;5013595;28;20033;-86
2023/11/08 02:52:34;;;;;;;8.27;1.30;;;;;;;;;;5011873;28;20033;-86
2023/11/08 02:55:01;;;;;;;10.10;1.42;;;;;;;;;;5010644;28;20052;-86
2023/11/08 02:57:30;;;;;;;7.50;1.10;;;;;;;;;;5012060;28;20022;-87
2023/11/08 02:59:55;;;;;;;5.47;1.48;;;;;;;;;;5012656;28;20383;-86
2023/11/08 03:02:21;;;;;;;7.60;1.27;;;;;;;;;;5012126;28;20105;-87
2023/11/08 03:04:46;;;;;;;6.10;1.15;;;;;;;;;;5010280;28;20026;-86
2023/11/08 03:07:12;;;;;;;7.10;1.00;;;;;;;;;;5013436;28;20372;-86
2023/11/08 03:09:37;;;;;;;5.53;1.13;;;;;;;;;;5011392;28;20977;-86
2023/11/08 03:12:02;;;;;;;6.63;1.30;;;;;;;;;;5013268;28;20112;-86
2023/11/08 03:14:28;;;;;;;9.13;1.40;;;;;;;;;;5012318;28;20060;-87
2023/11/08 03:16:54;;;;;;;6.65;1.27;;;;;;;;;;5011125;28;20038;-87
2023/11/08 03:19:22;;;;;;;6.72;1.55;;;;;;;;;;5013145;28;20014;-87
2023/11/08 03:21:47;;;;;;;6.82;1.88;;;;;;;;;;5011424;28;20095;-87
2023/11/08 03:24:13;;;;;;;16.13;1.55;;;;;;;;;;5012193;28;20010;-87
2023/11/08 03:26:38;;;;;;;9.40;1.83;;;;;;;;;;5012390;28;21019;-87
2023/11/08 03:29:04;;;;;;;8.05;1.63;;;;;;;;;;5011693;28;20030;-86
2023/11/08 03:31:30;;;;;;;7.65;1.70;;;;;;;;;;5009243;28;20041;-86
2023/11/08 03:33:57;;;;;;;12.80;1.58;;;;;;;;;;5012577;28;20034;-86
2023/11/08 03:36:23;;;;;;;7.95;0.95;;;;;;;;;;5009703;28;20025;-87
2023/11/08 03:38:50;;;;;;;9.40;1.48;;;;;;;;;;5012853;28;20376;-87
2023/11/08 03:41:15;;;;;;;11.10;1.48;;;;;;;;;;5011143;28;20468;-86
2023/11/08 03:43:40;;;;;;;8.73;1.27;;;;;;;;;;5006060;28;20029;-87
2023/11/08 03:46:05;;;;;;;13.30;1.67;;;;;;;;;;5012472;28;20022;-87
2023/11/08 03:48:31;;;;;;;7.70;1.23;;;;;;;;;;5011546;28;20808;-87
2023/11/08 03:50:56;;;;;;;6.43;1.30;;;;;;;;;;5011108;28;20026;-87
2023/11/08 03:53:22;;;;;;;8.07;1.30;;;;;;;;;;5012386;28;20049;-87
2023/11/08 03:55:47;;;;;;;11.85;1.42;;;;;;;;;;5009621;28;20275;-86
2023/11/08 03:58:13;;;;;;;10.83;1.57;;;;;;;;;;5011060;28;20021;-87
2023/11/08 04:00:38;;;;;;;14.85;3.25;;;;;;;;;;5010711;28;20622;-86
2023/11/08 04:03:03;;;;;;;9.87;1.77;;;;;;;;;;5009727;28;20038;-86
2023/11/08 04:05:30;;;;;;;9.77;1.17;;;;;;;;;;5011329;28;20295;-86
2023/11/08 04:07:56;;;;;;;15.07;2.03;;;;;;;;;;5012283;28;20258;-87
2023/11/08 04:10:21;;;;;;;13.23;1.85;;;;;;;;;;5011609;28;20024;-86
2023/11/08 04:12:47;;;;;;;13.20;1.77;;;;;;;;;;5012325;28;20386;-86
2023/11/08 04:15:12;;;;;;;12.77;1.60;;;;;;;;;;5010439;28;20029;-86
2023/11/08 04:17:37;;;;;;;15.82;1.95;;;;;;;;;;5012033;28;20018;-86
2023/11/08 04:20:04;;;;;;;10.13;1.52;;;;;;;;;;5010455;28;20072;-86
2023/11/08 04:22:29;;;;;;;16.98;2.72;;;;;;;;;;5012094;28;20038;-86
2023/11/08 04:24:55;;;;;;;10.73;2.03;;;;;;;;;;5009596;28;20026;-86
2023/11/08 04:27:20;;;;;;;9.27;1.42;;;;;;;;;;5010914;28;20607;-86
2023/11/08 04:29:45;;;;;;;15.10;2.05;;;;;;;;;;5011311;28;20500;-86
2023/11/08 04:32:11;;;;;;;20.10;1.60;;;;;;;;;;5008849;28;20484;-86
2023/11/08 04:34:36;;;;;;;14.03;2.10;;;;;;;;;;5010041;28;20366;-86
2023/11/08 04:37:05;;;;;;;11.97;1.70;;;;;;;;;;5013104;28;20289;-86
2023/11/08 04:39:31;;;;;;;11.20;1.52;;;;;;;;;;5015406;28;20311;-86
2023/11/08 04:41:56;;;;;;;12.55;1.95;;;;;;;;;;5014957;28;20121;-86
2023/11/08 04:44:21;;;;;;;9.67;1.30;;;;;;;;;;5014213;28;20097;-86
2023/11/08 04:46:47;;;;;;;15.88;2.20;;;;;;;;;;5015495;28;20354;-86
2023/11/08 04:49:13;;;;;;;11.53;1.30;;;;;;;;;;5014399;28;20089;-86
2023/11/08 04:51:38;;;;;;;15.90;2.90;;;;;;;;;;5014173;28;20270;-86
2023/11/08 04:54:04;;;;;;;13.95;2.13;;;;;;;;;;5015836;28;20026;-86
2023/11/08 04:56:29;;;;;;;8.57;1.58;;;;;;;;;;5013982;28;20400;-86
2023/11/08 04:58:54;;;;;;;8.63;1.40;;;;;;;;;;5015920;28;20507;-86
2023/11/08 05:01:20;;;;;;;9.63;1.58;;;;;;;;;;5015025;28;20091;-86
2023/11/08 05:03:46;;;;;;;9.40;1.60;;;;;;;;;;5014692;28;20030;-86
2023/11/08 05:06:11;;;;;;;13.77;3.85;;;;;;;;;;5015776;28;20261;-85
2023/11/08 05:08:36;;;;;;;9.65;1.30;;;;;;;;;;5013695;28;20037;-86
2023/11/08 05:11:01;;;;;;;6.90;1.33;;;;;;;;;;5015405;28;20021;-86
2023/11/08 05:13:27;;;;;;;8.23;1.25;;;;;;;;;;5013729;28;20263;-86
2023/11/08 05:15:52;;;;;;;15.57;3.00;;;;;;;;;;5015419;28;20032;-86
2023/11/08 05:18:17;;;;;;;19.48;3.88;;;;;;;;;;5012062;28;20267;-86
2023/11/08 05:20:45;;;;;;;20.52;2.05;;;;;;;;;;5014197;28;20058;-86
2023/11/08 05:23:11;;;;;;;6.35;1.33;;;;;;;;;;5015303;28;20022;-86
2023/11/08 05:25:40;;;;;;;9.88;1.35;;;;;;;;;;5014428;28;20022;-86
2023/11/08 05:28:06;;;;;;;9.82;1.42;;;;;;;;;;5015155;28;20022;-86
2023/11/08 05:30:31;;;;;;;23.17;2.83;;;;;;;;;;5011344;28;20049;-86
2023/11/08 05:32:57;;;;;;;20.05;1.85;;;;;;;;;;5014938;28;20011;-86
2023/11/08 05:35:22;;;;;;;13.15;1.80;;;;;;;;;;5013362;28;20033;-86
2023/11/08 05:37:48;;;;;;;8.20;1.30;;;;;;;;;;5014805;28;20025;-86
2023/11/08 05:40:14;;;;;;;10.00;1.58;;;;;;;;;;5014892;28;20025;-86
2023/11/08 05:42:40;;;;;;;9.02;1.58;;;;;;;;;;5014534;28;20030;-86
2023/11/08 05:45:05;;;;;;;10.68;1.40;;;;;;;;;;5014752;28;20028;-86
2023/11/08 05:47:31;;;;;;;7.00;1.73;;;;;;;;;;5013651;28;20018;-87
2023/11/08 05:49:57;;;;;;;7.68;1.60;;;;;;;;;;5014591;28;20028;-87
2023/11/08 05:52:22;;;;;;;11.75;2.60;;;;;;;;;;5014640;28;20506;-87
2023/11/08 05:54:48;;;;;;;16.98;2.35;;;;;;;;;;5014539;28;20042;-88
2023/11/08 05:57:14;;;;;;;20.13;3.20;;;;;;;;;;5012534;28;20044;-87
2023/11/08 05:59:40;;;;;;;16.73;2.10;;;;;;;;;;5014348;28;20149;-87
2023/11/08 06:02:06;;;;;;;14.10;2.53;;;;;;;;;;5012234;28;20445;-86
2023/11/08 06:04:32;;;;;;;18.57;2.97;;;;;;;;;;5014444;28;20104;-86
2023/11/08 06:06:57;;;;;;;20.52;2.97;;;;;;;;;;5011707;28;20290;-87
2023/11/08 06:09:23;;;;;;;17.08;2.60;;;;;;;;;;5011868;28;20018;-87
2023/11/08 06:11:49;;;;;;;21.25;2.95;;;;;;;;;;5011377;28;20482;-87
2023/11/08 06:14:15;;;;;;;18.73;2.90;;;;;;;;;;5005128;28;20026;-87
2023/11/08 06:16:43;;;;;;;25.45;2.75;;;;;;;;;;5007404;28;20025;-85
2023/11/08 06:19:09;;;;;;;28.83;5.88;;;;;;;;;;5007044;28;20018;-85
2023/11/08 06:21:34;;;;;;;26.45;3.63;;;;;;;;;;5006133;28;20034;-85
2023/11/08 06:24:00;;;;;;;28.10;3.65;;;;;;;;;;5008426;28;20022;-85
2023/11/08 06:26:25;;;;;;;19.38;2.67;;;;;;;;;;5006132;28;20014;-85
2023/11/08 06:28:51;;;;;;;20.85;2.70;;;;;;;;;;5005550;28;20021;-86
2023/11/08 06:31:16;;;;;;;18.60;2.58;;;;;;;;;;5006312;28;20484;-86
2023/11/08 06:33:42;;;;;;;19.43;2.70;;;;;;;;;;5011349;28;20571;-85
2023/11/08 06:36:07;;;;;;;28.50;4.32;;;;;;;;;;5010475;28;20549;-84
2023/11/08 06:38:32;;;;;;;17.08;2.10;;;;;;;;;;5009634;28;20543;-86
2023/11/08 06:40:58;;;;;;;21.98;4.80;;;;;;;;;;5008690;28;20026;-84
2023/11/08 06:43:23;;;;;;;22.83;4.07;;;;;;;;;;5005997;28;20022;-87
2023/11/08 06:45:51;;;;;;;15.82;2.53;;;;;;;;;;5010766;28;20014;-86
2023/11/08 06:48:16;;;;;;;19.10;2.80;;;;;;;;;;5011388;28;20065;-86
2023/11/08 06:50:43;;;;;;;24.38;2.78;;;;;;;;;;5007170;28;20026;-86
2023/11/08 06:53:08;;;;;;;14.68;2.45;;;;;;;;;;5001411;28;20035;-85
2023/11/08 06:55:33;;;;;;;17.08;2.63;;;;;;;;;;5004035;28;20531;-86
2023/11/08 06:58:00;;;;;;;21.77;2.83;;;;;;;;;;5006587;28;20099;-84
2023/11/08 07:00:25;;;;;;;18.85;3.03;;;;;;;;;;5005994;28;20268;-84
2023/11/08 07:02:50;;;;;;;12.63;2.03;;;;;;;;;;5010137;28;20029;-84
2023/11/08 07:05:16;;;;;;;12.27;2.33;;;;;;;;;;5011374;28;20259;-84
2023/11/08 07:07:41;;;;;;;13.10;1.38;;;;;;;;;;5009871;28;20279;-83
2023/11/08 07:10:10;;;;;;;11.80;2.03;;;;;;;;;;5011218;28;20484;-84
2023/11/08 07:12:36;;;;;;;9.02;1.58;;;;;;;;;;5012800;28;20021;-84
2023/11/08 07:15:01;;;;;;;6.40;1.10;;;;;;;;;;5011414;28;20028;-85
2023/11/08 07:17:29;;;;;;;11.32;1.90;;;;;;;;;;5012292;28;20061;-84
2023/11/08 07:19:55;;;;;;;8.10;1.02;;;;;;;;;;5011499;28;20017;-84
2023/11/08 07:22:20;;;;;;;5.43;0.95;;;;;;;;;;5012752;28;20113;-84
2023/11/08 07:24:45;;;;;;;12.43;1.30;;;;;;;;;;5010703;28;20030;-84
2023/11/08 07:27:10;;;;;;;4.50;0.88;;;;;;;;;;5012853;28;20669;-84
2023/11/08 07:29:38;;;;;;;13.80;2.40;;;;;;;;;;5010408;28;20097;-85
2023/11/08 07:32:03;;;;;;;6.60;1.23;;;;;;;;;;5011069;28;20279;-85
2023/11/08 07:34:28;;;;;;;15.82;1.10;;;;;;;;;;5009018;28;20080;-84
2023/11/08 07:36:53;;;;;;;6.63;1.00;;;;;;;;;;5012771;28;20415;-84
2023/11/08 07:39:19;;;;;;;9.13;1.25;;;;;;;;;;5010095;28;20266;-83
2023/11/08 07:41:45;;;;;;;6.50;1.17;;;;;;;;;;5012433;28;20033;-84
2023/11/08 07:44:10;;;;;;;4.38;0.77;;;;;;;;;;5010261;28;20049;-84
2023/11/08 07:46:35;;;;;;;7.07;0.83;;;;;;;;;;5012819;28;20117;-83
2023/11/08 07:49:01;;;;;;;2.20;0.88;;;;;;;;;;5009988;28;20334;-86
2023/11/08 07:51:26;;;;;;;4.93;0.65;;;;;;;;;;5011160;28;20041;-84
2023/11/08 07:53:51;;;;;;;3.17;1.10;;;;;;;;;;5011425;28;20425;-84
2023/11/08 07:56:17;;;;;;;3.88;0.95;;;;;;;;;;5009554;28;20025;-85
2023/11/08 07:58:43;;;;;;;2.85;0.60;;;;;;;;;;5012010;28;20025;-84
2023/11/08 08:01:09;;;;;;;8.98;0.85;;;;;;;;;;5010293;28;20026;-84
2023/11/08 08:03:35;;;;;;;3.13;0.70;;;;;;;;;;5011942;28;20121;-84
2023/11/08 08:06:02;;;;;;;4.65;1.10;;;;;;;;;;5009218;28;20061;-85
2023/11/08 08:08:28;;;;;;;5.32;0.93;;;;;;;;;;5009596;28;20028;-84
2023/11/08 08:10:53;;;;;;;3.10;0.60;;;;;;;;;;5010544;28;20105;-86
2023/11/08 08:13:20;;;;;;;5.25;0.30;;;;;;;;;;5012191;28;20025;-85
2023/11/08 08:15:45;;;;;;;2.08;0.40;;;;;;;;;;5010397;28;20014;-84
2023/11/08 08:18:11;;;;;;;2.35;0.30;;;;;;;;;;5012264;28;20117;-84
2023/11/08 08:20:37;;;;;;;3.65;0.50;;;;;;;;;;5009953;28;20054;-84
2023/11/08 08:23:03;;;;;;;2.33;0.40;;;;;;;;;;5012535;28;20120;-86
2023/11/08 08:25:28;;;;;;;2.13;0.88;;;;;;;;;;5011257;28;20439;-85
2023/11/08 08:27:53;;;;;;;3.03;0.40;;;;;;;;;;5008519;28;20080;-84
2023/11/08 08:30:20;;;;;;;4.77;0.57;;;;;;;;;;5009700;28;20298;-86
2023/11/08 08:32:47;;;;;;;1.10;0.30;;;;;;;;;;5010440;28;20299;-84
2023/11/08 08:35:12;;;;;;;3.35;0.50;;;;;;;;;;5010350;28;20013;-86
2023/11/08 08:37:38;;;;;;;2.47;0.55;;;;;;;;;;5011637;28;20065;-84
2023/11/08 08:40:12;;;;;;;2.00;0.43;;;;;;;;;;5010612;28;20485;-85
2023/11/08 08:42:38;;;;;;;5.90;0.60;;;;;;;;;;4994282;28;20038;-85
2023/11/08 08:45:03;;;;;;;1.48;0.25;;;;;;;;;;4999873;28;20396;-84
2023/11/08 08:47:29;;;;;;;3.30;0.50;;;;;;;;;;5008348;28;20043;-86
2023/11/08 08:49:57;;;;;;;3.35;0.30;;;;;;;;;;5010666;28;20033;-85
2023/11/08 08:52:22;;;;;;;0.57;0.20;;;;;;;;;;5009589;28;20022;-85
2023/11/08 08:54:47;;;;;;;6.95;0.60;;;;;;;;;;5011242;28;20071;-85
2023/11/08 08:57:13;;;;;;;10.80;0.57;;;;;;;;;;5011449;28;20022;-85
2023/11/08 08:59:39;;;;;;;3.83;0.40;;;;;;;;;;5011362;28;20018;-85
2023/11/08 09:02:04;;;;;;;2.22;0.40;;;;;;;;;;5009796;28;20131;-85
2023/11/08 09:04:29;;;;;;;2.45;0.47;;;;;;;;;;5009148;28;20030;-86
2023/11/08 09:06:54;;;;;;;0.57;0.10;;;;;;;;;;5011303;28;20026;-85
2023/11/08 09:09:20;;;;;;;2.40;0.60;;;;;;;;;;5011036;28;20633;-86
2023/11/08 09:11:45;;;;;;;1.33;0.10;;;;;;;;;;5011292;28;20080;-85
2023/11/08 09:14:10;;;;;;;5.20;0.33;;;;;;;;;;5011197;28;20298;-86
2023/11/08 09:16:38;;;;;;;2.43;0.20;;;;;;;;;;5009213;28;20363;-86
2023/11/08 09:19:05;;;;;;;3.03;0.32;;;;;;;;;;5008330;28;20350;-86
2023/11/08 09:21:30;;;;;;;3.67;0.30;;;;;;;;;;5011308;28;20026;-85
2023/11/08 09:23:56;;;;;;;3.22;0.95;;;;;;;;;;5012474;28;20121;-86
2023/11/08 09:26:22;;;;;;;0.98;0.20;;;;;;;;;;5013978;28;20025;-86
2023/11/08 09:28:47;;;;;;;1.27;0.30;;;;;;;;;;5015238;28;20026;-87
2023/11/08 09:31:15;;;;;;;4.37;0.77;;;;;;;;;;5013231;28;20275;-86
2023/11/08 09:33:40;;;;;;;2.22;0.30;;;;;;;;;;5015074;28;20263;-86
2023/11/08 09:36:06;;;;;;;1.30;0.40;;;;;;;;;;5014890;28;20022;-85
2023/11/08 09:38:32;;;;;;;2.95;0.43;;;;;;;;;;5016035;28;20301;-85
2023/11/08 09:40:57;;;;;;;1.05;0.35;;;;;;;;;;5015010;28;20014;-85
2023/11/08 09:43:22;;;;;;;1.20;0.35;;;;;;;;;;5012943;28;20026;-85
2023/11/08 09:45:48;;;;;;;1.13;0.30;;;;;;;;;;5014036;28;20046;-85
2023/11/08 09:48:15;;;;;;;1.48;0.20;;;;;;;;;;5014871;28;20418;-86
2023/11/08 09:50:40;;;;;;;2.97;0.40;;;;;;;;;;5014370;28;20026;-85
2023/11/08 09:53:05;;;;;;;2.10;0.30;;;;;;;;;;5014639;28;20380;-85
2023/11/08 09:55:31;;;;;;;1.30;0.30;;;;;;;;;;5013390;28;20029;-85
2023/11/08 09:57:57;;;;;;;0.88;0.30;;;;;;;;;;5013430;28;20495;-85
2023/11/08 10:00:25;;;;;;;2.35;0.30;;;;;;;;;;5014055;28;20461;-85
2023/11/08 10:02:51;;;;;;;6.28;0.35;;;;;;;;;;5014074;28;20042;-85
2023/11/08 10:05:17;;;;;;;2.70;0.30;;;;;;;;;;5014557;28;20053;-86
2023/11/08 10:07:43;;;;;;;1.73;0.55;;;;;;;;;;5013834;28;20510;-84
2023/11/08 10:10:08;;;;;;;2.53;0.35;;;;;;;;;;5014203;28;20082;-84
2023/11/08 10:12:33;;;;;;;3.67;1.20;;;;;;;;;;5014357;28;20104;-84
2023/11/08 10:14:59;;;;;;;5.20;0.57;;;;;;;;;;5013384;28;20022;-84
2023/11/08 10:17:37;;;;;;;5.00;0.45;;;;;;;;;;5014025;28;20350;-84
2023/11/08 10:20:03;;;;;;;7.57;0.68;;;;;;;;;;5009442;28;20014;-84
2023/11/08 10:22:28;;;;;;;6.32;1.02;;;;;;;;;;5003301;28;20076;-85
2023/11/08 10:24:57;;;;;;;7.05;1.20;;;;;;;;;;5012293;28;20455;-84
2023/11/08 10:27:26;;;;;;;8.27;0.63;;;;;;;;;;5013723;28;20022;-85
2023/11/08 10:29:54;;;;;;;11.27;1.50;;;;;;;;;;4993082;28;20026;-84
2023/11/08 10:32:20;;;;;;;4.80;0.80;;;;;;;;;;5000428;28;20021;-84
2023/11/08 10:34:46;;;;;;;11.85;1.33;;;;;;;;;;5013255;28;20066;-84
2023/11/08 10:37:27;;;;;;;16.85;1.63;;;;;;;;;;5013848;28;20025;-84
2023/11/08 10:39:54;;;;;;;17.40;1.93;;;;;;;;;;5013643;28;20022;-85
2023/11/08 10:42:20;;;;;;;19.30;1.88;;;;;;;;;;5013255;28;20299;-85
2023/11/08 10:44:46;;;;;;;11.93;2.17;;;;;;;;;;5012479;28;20018;-85
2023/11/08 10:47:13;;;;;;;17.10;1.98;;;;;;;;;;5013770;28;20598;-85
2023/11/08 10:49:39;;;;;;;17.23;2.53;;;;;;;;;;5012889;28;20018;-85
2023/11/08 10:52:09;;;;;;;13.75;2.47;;;;;;;;;;5011587;28;20415;-85
2023/11/08 10:54:35;;;;;;;26.95;3.15;;;;;;;;;;5013457;28;20393;-85
2023/11/08 10:57:00;;;;;;;19.67;3.55;;;;;;;;;;5010547;28;20029;-85
2023/11/08 10:59:27;;;;;;;19.98;3.50;;;;;;;;;;5013797;28;20021;-84
2023/11/08 11:01:53;;;;;;;28.20;4.80;;;;;;;;;;5013417;28;20026;-84
2023/11/08 11:04:20;;;;;;;20.52;4.35;;;;;;;;;;5013251;28;20028;-84
2023/11/08 11:06:47;;;;;;;19.48;2.90;;;;;;;;;;5012131;28;20030;-85
2023/11/08 11:09:13;;;;;;;24.50;3.65;;;;;;;;;;5013210;28;20101;-84
2023/11/08 11:11:42;;;;;;;16.90;2.42;;;;;;;;;;5012246;28;20125;-84
2023/11/08 11:14:26;;;;;;;16.48;2.38;;;;;;;;;;5012944;28;20028;-85
2023/11/08 11:17:00;;;;;;;15.25;2.00;;;;;;;;;;5011444;28;20025;-84
2023/11/08 11:19:27;;;;;;;6.60;1.52;;;;;;;;;;5012894;28;20049;-85
2023/11/08 11:21:54;;;;;;;5.55;1.13;;;;;;;;;;5011676;28;20488;-84
2023/11/08 11:24:39;;;;;;;6.47;1.33;;;;;;;;;;5012811;28;20010;-84
2023/11/08 11:27:05;;;;;;;4.47;0.85;;;;;;;;;;5012759;28;20494;-84
2023/11/08 11:29:31;;;;;;;7.05;1.23;;;;;;;;;;5013032;28;20017;-84
2023/11/08 11:31:57;;;;;;;2.55;0.63;;;;;;;;;;5011625;28;20029;-85
2023/11/08 11:34:26;;;;;;;5.55;0.63;;;;;;;;;;5013223;28;20026;-84
2023/11/08 11:37:10;;;;;;;4.00;0.60;;;;;;;;;;5009703;28;20193;-84
2023/11/08 11:39:38;;;;;;;5.85;1.45;;;;;;;;;;5012395;28;20088;-85
2023/11/08 11:42:12;;;;;;;4.30;0.68;;;;;;;;;;5005762;28;20010;-84
2023/11/08 11:44:43;;;;;;;3.72;0.55;;;;;;;;;;4992909;28;20026;-84
2023/11/08 11:47:10;;;;;;;2.53;0.68;;;;;;;;;;4992368;28;20014;-84
2023/11/08 11:49:38;;;;;;;4.68;1.20;;;;;;;;;;4992980;28;20030;-84
2023/11/08 11:52:04;;;;;;;4.63;0.90;;;;;;;;;;5005448;28;20010;-84
2023/11/08 11:54:29;;;;;;;3.33;0.80;;;;;;;;;;5012225;28;20484;-84
2023/11/08 11:56:54;;;;;;;4.17;1.00;;;;;;;;;;5012227;28;20022;-84
2023/11/08 11:59:20;;;;;;;3.80;1.03;;;;;;;;;;5010761;28;20301;-86
2023/11/08 12:01:45;;;;;;;4.10;1.15;;;;;;;;;;5008834;28;20286;-84
2023/11/08 12:04:10;;;;;;;11.45;1.70;;;;;;;;;;4992752;28;20049;-85
2023/11/08 12:06:35;;;;;;;8.95;1.10;;;;;;;;;;5009946;28;20022;-85
2023/11/08 12:09:00;;;;;;;8.35;1.75;;;;;;;;;;4997016;28;20026;-83
2023/11/08 12:11:26;;;;;;;7.65;1.90;;;;;;;;;;5011916;28;20078;-83
2023/11/08 12:13:52;;;;;;;9.97;1.40;;;;;;;;;;5012217;28;20022;-83
2023/11/08 12:16:18;;;;;;;4.55;1.50;;;;;;;;;;5011413;28;20286;-83
2023/11/08 12:18:47;;;;;;;8.18;1.98;;;;;;;;;;5011981;28;20079;-84
2023/11/08 12:21:13;;;;;;;12.10;1.55;;;;;;;;;;5004987;28;20053;-84
2023/11/08 12:23:40;;;;;;;8.43;1.58;;;;;;;;;;4992225;28;20030;-84
2023/11/08 12:26:05;;;;;;;14.10;1.50;;;;;;;;;;4991063;28;20027;-84
2023/11/08 12:28:31;;;;;;;14.32;2.10;;;;;;;;;;4990802;28;20022;-84
2023/11/08 12:31:00;;;;;;;12.10;1.92;;;;;;;;;;5003480;28;20100;-85
2023/11/08 12:33:26;;;;;;;7.60;1.70;;;;;;;;;;5010097;28;20053;-85
2023/11/08 12:35:51;;;;;;;11.50;1.90;;;;;;;;;;5011873;28;20472;-85
2023/11/08 12:38:17;;;;;;;8.27;1.75;;;;;;;;;;5011753;28;20029;-84
2023/11/08 12:40:42;;;;;;;7.32;1.75;;;;;;;;;;5011533;28;20018;-84
2023/11/08 12:43:12;;;;;;;7.87;1.43;;;;;;;;;;5011313;28;20033;-84
2023/11/08 12:45:38;;;;;;;10.30;1.48;;;;;;;;;;5009620;28;21072;-84
2023/11/08 12:48:04;;;;;;;10.15;1.65;;;;;;;;;;5011566;28;20021;-84
2023/11/08 12:50:29;;;;;;;10.57;2.00;;;;;;;;;;5011460;28;20486;-84
2023/11/08 12:52:55;;;;;;;13.85;2.20;;;;;;;;;;5011826;28;20022;-85
2023/11/08 12:55:20;;;;;;;8.02;1.30;;;;;;;;;;5011526;28;20093;-85
2023/11/08 12:57:45;;;;;;;7.43;1.60;;;;;;;;;;5012964;28;20018;-84
2023/11/08 13:00:11;;;;;;;6.67;1.73;;;;;;;;;;5013993;28;20037;-85
2023/11/08 13:02:37;;;;;;;12.40;1.77;;;;;;;;;;5016782;28;20345;-85
2023/11/08 13:05:04;;;;;;;13.48;2.15;;;;;;;;;;5015091;28;20104;-85
2023/11/08 13:07:29;;;;;;;13.43;2.22;;;;;;;;;;5016362;28;20121;-86
2023/11/08 13:09:54;;;;;;;13.70;2.47;;;;;;;;;;5015264;28;20499;-87
2023/11/08 13:12:20;;;;;;;12.25;3.00;;;;;;;;;;5013762;28;20109;-86
2023/11/08 13:14:47;;;;;;;9.80;2.10;;;;;;;;;;5013896;28;20021;-86
2023/11/08 13:17:13;;;;;;;9.70;1.90;;;;;;;;;;5014826;28;20264;-86
2023/11/08 13:19:38;;;;;;;12.95;2.72;;;;;;;;;;5015240;28;20048;-85
2023/11/08 13:22:03;;;;;;;12.10;2.58;;;;;;;;;;5015307;28;20384;-85
2023/11/08 13:24:28;;;;;;;22.13;2.75;;;;;;;;;;5015229;28;20021;-85
2023/11/08 13:26:54;;;;;;;14.70;2.30;;;;;;;;;;5014042;28;20117;-86
2023/11/08 13:29:19;;;;;;;17.80;2.70;;;;;;;;;;5012484;28;20371;-85
2023/11/08 13:31:45;;;;;;;18.80;2.70;;;;;;;;;;5016277;28;20345;-86
2023/11/08 13:34:10;;;;;;;15.40;2.53;;;;;;;;;;5014970;28;20464;-85
2023/11/08 13:36:35;;;;;;;12.25;2.35;;;;;;;;;;5013624;28;20025;-85
2023/11/08 13:39:03;;;;;;;14.63;2.53;;;;;;;;;;5011448;28;20380;-84
2023/11/08 13:41:28;;;;;;;14.15;3.22;;;;;;;;;;5014716;28;20021;-85
2023/11/08 13:43:53;;;;;;;16.73;3.07;;;;;;;;;;5014159;28;20282;-84
2023/11/08 13:46:19;;;;;;;8.77;1.85;;;;;;;;;;5013051;28;20267;-84
2023/11/08 13:48:44;;;;;;;12.30;2.97;;;;;;;;;;5013248;28;20460;-85
2023/11/08 13:51:10;;;;;;;9.32;2.17;;;;;;;;;;5012963;28;20041;-85
2023/11/08 13:53:36;;;;;;;15.93;2.30;;;;;;;;;;5010693;28;20092;-85
2023/11/08 13:56:02;;;;;;;13.57;3.33;;;;;;;;;;5012537;28;20495;-85
2023/11/08 13:58:27;;;;;;;13.77;2.90;;;;;;;;;;5013568;28;20057;-86
2023/11/08 14:00:53;;;;;;;15.20;3.08;;;;;;;;;;5013081;28;20022;-85
2023/11/08 14:03:18;;;;;;;13.68;2.50;;;;;;;;;;5014282;28;20030;-85
2023/11/08 14:05:44;;;;;;;9.77;2.17;;;;;;;;;;5013453;28;20520;-85
2023/11/08 14:08:09;;;;;;;17.17;3.08;;;;;;;;;;5013915;28;20804;-85
2023/11/08 14:10:36;;;;;;;15.07;2.90;;;;;;;;;;5013619;28;20040;-84
2023/11/08 14:13:03;;;;;;;12.85;2.13;;;;;;;;;;5012463;28;20026;-84
2023/11/08 14:15:29;;;;;;;11.65;2.25;;;;;;;;;;5014312;28;20022;-85
2023/11/08 14:17:55;;;;;;;15.63;3.20;;;;;;;;;;5014419;28;20014;-85
2023/11/08 14:20:20;;;;;;;13.82;2.25;;;;;;;;;;5014309;28;20499;-84
2023/11/08 14:22:46;;;;;;;17.67;3.15;;;;;;;;;;5014085;28;20083;-84
2023/11/08 14:25:11;;;;;;;10.13;2.53;;;;;;;;;;5012804;28;20032;-85
2023/11/08 14:27:37;;;;;;;14.18;2.45;;;;;;;;;;5011838;28;20026;-84
2023/11/08 14:30:03;;;;;;;13.23;2.10;;;;;;;;;;5010902;28;20039;-84
2023/11/08 14:32:29;;;;;;;9.10;1.83;;;;;;;;;;5013849;28;20104;-84